Aérodrome :
LOGIN :

S'inscrire | Disclaimer

   EN    FR    IT 

 










Légende :    VFR   VFR Marginal   IFR   IFR Intensif   IFR Très Intensif
Visi : 
Plafond : 
>= 8 km
>= 3000ft
5 à 8 km
1000 à 3000 ft
1500m à 5 km
500 à 1000 ft
800 à 1500m
200 à 500 ft
< 800m
< 200 ft
Symboles :   Orages  Brouillard  Fortes neiges  Fortes précipitations  Vent > 20 kt
SIGMETs :   Divers  Orages  Givrage  Turbulence  Onde Orograph.  Cendres Volcan.






- Altitude de l'aérodrome : 512 ft
- Code IATA : URO


LFOP - Rouen Vallée de Seine

DERNIER METAR :
  • 192100Z AUTO 33007KT CAVOK 22/15 Q1015

METARs EXPIRÉS :
  • 192030Z AUTO 32007KT CAVOK 23/16 Q1015
  • 192000Z AUTO 32011KT CAVOK 24/15 Q1015
  • 191930Z AUTO 32010KT CAVOK 25/15 Q1015
  • 191900Z AUTO 32009KT CAVOK 26/16 Q1015
  • 191830Z AUTO 34009KT CAVOK 27/16 Q1014
  • 191800Z AUTO 34010KT CAVOK 28/17 Q1014 NOSIG
  • 191730Z AUTO 36011KT CAVOK 29/18 Q1014 BECMG 30005KT
  • 191700Z AUTO 36007KT 320V100 CAVOK 29/18 Q1014 TEMPO 4000 -SHRA BKN060CB
  • 191630Z AUTO 15004KT 120V180 CAVOK 30/18 Q1014 TEMPO 4000 -SHRA BKN060CB

TAF AMD TAF LFOP
Valide du 19 à 17h jusqu'au 20 à 00h UTC


191743Z 1917/1924 36008KT CAVOK
ATIS : +33 2 35 80 80 34
Météo : +33 2 32 86 52 80



MET'MAP, la Météo Aéronautique d'un coup d'oeil ! - Copyright ORBIFLY Décembre 2007 - Disclaimer

ORBIFLY MET'MAP TEAM :

Programmation & Développement : Alexandra Zaïnal
Sur une idée originale de : Baudouin d'Aumeries
Soutien technique & logistique : Manuel Goepfert
Assistance : Marc-Olivier Méhu




SOURCES & CREDITS :

   NOAA